Time;durP1;ratioP1;P1;durP2;ratioP2;P2;SDS_P1;SDS_P2;PMS_P1;PMS_P2;Temp;Humidity;BMP_temperature;BMP_pressure;BME280_temperature;BME280_humidity;BME280_pressure;Samples;Min_cycle;Max_cycle;Signal;HPM_P1;HPM_P2
2021/07/13 00:00:13;;;;;;;14.95;3.45;;;16.10;99.90;;;;;;2111944;28;20020;-61
2021/07/13 00:01:13;;;;;;;11.43;3.08;;;16.10;99.90;;;;;;2112100;28;20044;-61
2021/07/13 00:02:14;;;;;;;26.45;4.28;;;16.20;99.90;;;;;;2104672;28;20556;-60
2021/07/13 00:03:15;;;;;;;24.13;4.22;;;16.20;99.90;;;;;;2107892;28;20027;-61
2021/07/13 00:04:16;;;;;;;18.20;4.05;;;16.20;99.90;;;;;;2111514;28;20412;-61
2021/07/13 00:05:18;;;;;;;21.77;3.63;;;16.20;99.90;;;;;;2109583;28;20069;-62
2021/07/13 00:06:21;;;;;;;15.60;3.60;;;16.20;99.90;;;;;;2103185;28;20044;-63
2021/07/13 00:07:21;;;;;;;16.08;4.15;;;16.20;99.90;;;;;;2110813;28;20088;-62
2021/07/13 00:08:22;;;;;;;18.42;3.50;;;16.20;99.90;;;;;;2103294;28;20070;-62
2021/07/13 00:09:23;;;;;;;19.98;3.70;;;16.20;99.90;;;;;;2109494;28;20019;-63
2021/07/13 00:10:30;;;;;;;19.70;3.80;;;16.20;99.90;;;;;;2103505;28;20024;-62
2021/07/13 00:11:31;;;;;;;17.55;3.63;;;16.20;99.90;;;;;;2110695;28;20035;-62
2021/07/13 00:12:32;;;;;;;14.20;4.00;;;16.20;99.90;;;;;;2112153;28;20024;-61
2021/07/13 00:13:33;;;;;;;14.13;3.75;;;16.20;99.90;;;;;;2106935;28;20460;-61
2021/07/13 00:14:35;;;;;;;21.88;4.53;;;16.20;99.90;;;;;;2106479;28;20248;-61
2021/07/13 00:15:39;;;;;;;14.02;3.67;;;16.20;99.90;;;;;;2106473;28;20046;-61
2021/07/13 00:16:40;;;;;;;20.67;4.60;;;16.20;99.90;;;;;;2101803;28;20339;-62
2021/07/13 00:17:41;;;;;;;18.13;4.30;;;16.20;99.90;;;;;;2097447;28;20429;-61
2021/07/13 00:18:42;;;;;;;15.18;3.70;;;16.20;99.90;;;;;;2097879;28;20052;-62
2021/07/13 00:19:43;;;;;;;14.50;3.47;;;16.20;99.90;;;;;;2098149;28;20099;-61
2021/07/13 00:20:44;;;;;;;22.13;3.90;;;16.20;99.90;;;;;;2097923;28;20017;-62
2021/07/13 00:21:45;;;;;;;20.65;4.82;;;16.30;99.90;;;;;;2098050;28;20173;-62
2021/07/13 00:22:45;;;;;;;15.35;3.55;;;16.30;99.90;;;;;;2097848;28;20021;-62
2021/07/13 00:23:46;;;;;;;17.27;4.05;;;16.30;99.90;;;;;;2097243;28;20067;-62
2021/07/13 00:24:47;;;;;;;18.17;3.88;;;16.30;99.90;;;;;;2097856;28;20491;-62
2021/07/13 00:25:47;;;;;;;18.27;4.25;;;16.30;99.90;;;;;;2105119;28;20467;-62
2021/07/13 00:26:48;;;;;;;18.25;4.55;;;16.30;99.90;;;;;;2106162;28;20129;-62
2021/07/13 00:27:49;;;;;;;20.58;4.10;;;16.30;99.90;;;;;;2106071;28;20032;-63
2021/07/13 00:28:50;;;;;;;18.75;3.78;;;16.30;99.90;;;;;;2103043;28;20019;-62
2021/07/13 00:29:51;;;;;;;17.58;3.90;;;16.20;99.90;;;;;;2102492;28;20032;-62
2021/07/13 00:30:51;;;;;;;23.05;4.85;;;16.30;99.90;;;;;;2105288;28;20031;-62
2021/07/13 00:31:52;;;;;;;20.10;3.85;;;16.30;99.90;;;;;;2105281;28;20034;-62
2021/07/13 00:32:53;;;;;;;15.02;4.28;;;16.30;99.90;;;;;;2096934;28;20021;-62
2021/07/13 00:33:54;;;;;;;16.30;3.67;;;16.30;99.90;;;;;;2097840;28;20029;-62
2021/07/13 00:34:55;;;;;;;13.55;3.63;;;16.30;99.90;;;;;;2097692;28;20067;-62
2021/07/13 00:35:56;;;;;;;17.80;4.45;;;16.30;99.90;;;;;;2097635;28;20031;-62
2021/07/13 00:36:57;;;;;;;17.83;3.90;;;16.30;99.90;;;;;;2097755;28;20074;-62
2021/07/13 00:37:57;;;;;;;22.42;4.57;;;16.30;99.90;;;;;;2097700;28;20090;-62
2021/07/13 00:38:58;;;;;;;18.35;4.32;;;16.30;99.90;;;;;;2102281;28;20407;-62
2021/07/13 00:39:59;;;;;;;27.80;4.57;;;16.30;99.90;;;;;;2097879;28;20029;-62
2021/07/13 00:40:59;;;;;;;16.27;4.05;;;16.30;99.90;;;;;;2097359;28;20049;-62
2021/07/13 00:42:00;;;;;;;25.05;4.03;;;16.30;99.90;;;;;;2097505;28;20547;-62
2021/07/13 00:43:01;;;;;;;19.77;3.80;;;16.30;99.90;;;;;;2098081;28;20025;-64
2021/07/13 00:44:02;;;;;;;15.68;3.92;;;16.30;99.90;;;;;;2097993;28;20050;-62
2021/07/13 00:45:05;;;;;;;17.25;3.42;;;16.30;99.90;;;;;;2100525;28;20063;-62
2021/07/13 00:46:06;;;;;;;18.23;4.47;;;16.30;99.90;;;;;;2104976;28;20036;-62
2021/07/13 00:47:06;;;;;;;23.20;3.80;;;16.30;99.90;;;;;;2105792;28;20406;-62
2021/07/13 00:48:09;;;;;;;22.25;4.55;;;16.30;99.90;;;;;;2105641;28;20395;-63
2021/07/13 00:49:11;;;;;;;25.40;4.50;;;16.30;99.90;;;;;;2102438;28;20507;-62
2021/07/13 00:50:14;;;;;;;22.42;4.38;;;16.30;99.90;;;;;;2105081;28;20074;-62
2021/07/13 00:51:15;;;;;;;16.45;3.72;;;16.30;99.90;;;;;;2105055;28;20125;-62
2021/07/13 00:52:15;;;;;;;22.13;3.88;;;16.40;99.90;;;;;;2105286;28;20527;-62
2021/07/13 00:53:17;;;;;;;19.65;4.30;;;16.30;99.90;;;;;;2097609;28;20024;-62
2021/07/13 00:54:19;;;;;;;22.20;3.92;;;16.40;99.90;;;;;;2097290;28;20727;-62
2021/07/13 00:55:20;;;;;;;20.23;3.78;;;16.40;99.90;;;;;;2097294;28;20024;-62
2021/07/13 00:56:21;;;;;;;20.20;4.30;;;16.40;99.90;;;;;;2097181;28;20122;-62
2021/07/13 00:57:22;;;;;;;23.90;3.90;;;16.40;99.90;;;;;;2104724;28;20069;-62
2021/07/13 00:58:24;;;;;;;22.95;4.20;;;16.40;99.90;;;;;;2100069;28;20035;-62
2021/07/13 00:59:25;;;;;;;;;;;16.40;99.90;;;;;;2105903;28;20054;-62
2021/07/13 01:00:25;;;;;;;17.63;4.07;;;16.40;99.90;;;;;;2102565;28;19911;-62
2021/07/13 01:01:26;;;;;;;17.38;3.88;;;16.40;99.90;;;;;;2100064;28;20024;-62
2021/07/13 01:02:27;;;;;;;21.30;4.13;;;16.40;99.90;;;;;;2104729;28;20016;-62
2021/07/13 01:03:27;;;;;;;24.83;4.88;;;16.40;99.90;;;;;;2105103;28;20471;-62
2021/07/13 01:04:29;;;;;;;20.27;4.65;;;16.40;99.90;;;;;;2105338;28;20061;-62
2021/07/13 01:05:41;;;;;;;25.08;4.13;;;16.40;99.90;;;;;;2105551;28;20020;-62
2021/07/13 01:07:06;;;;;;;21.48;4.18;;;16.40;99.90;;;;;;2105856;28;20113;-62
2021/07/13 01:08:26;;;;;;;20.15;4.47;;;16.40;99.90;;;;;;2102913;28;20415;-63
2021/07/13 01:09:45;;;;;;;13.13;3.92;;;16.40;99.90;;;;;;2097528;28;20052;-62
2021/07/13 01:11:07;;;;;;;13.25;3.70;;;16.40;99.90;;;;;;2102875;28;20027;-62
2021/07/13 01:12:16;;;;;;;19.95;4.35;;;16.40;99.90;;;;;;2103574;28;20016;-63
2021/07/13 01:13:19;;;;;;;16.60;4.18;;;16.40;99.90;;;;;;2104611;28;20103;-61
2021/07/13 01:14:41;;;;;;;19.83;4.13;;;16.40;99.90;;;;;;2103467;28;20540;-61
2021/07/13 01:15:49;;;;;;;18.40;4.13;;;16.30;99.90;;;;;;2095130;28;20032;-61
2021/07/13 01:17:05;;;;;;;17.38;4.25;;;16.40;99.90;;;;;;2096564;28;20086;-61
2021/07/13 01:18:17;;;;;;;20.83;4.07;;;16.40;99.90;;;;;;2099994;28;20047;-62
2021/07/13 01:19:43;;;;;;;26.35;5.25;;;16.40;99.90;;;;;;2105891;28;20099;-61
2021/07/13 01:20:55;;;;;;;24.33;4.05;;;16.40;99.90;;;;;;2105888;28;20028;-61
2021/07/13 01:21:59;;;;;;;17.85;3.83;;;16.40;99.90;;;;;;2105906;28;20026;-62
2021/07/13 01:23:37;;;;;;;17.02;3.47;;;16.40;99.90;;;;;;2106202;28;20024;-61
2021/07/13 01:25:07;;;;;;;14.82;4.00;;;16.40;99.90;;;;;;2104733;28;20568;-62
2021/07/13 01:26:47;;;;;;;19.27;4.30;;;16.40;99.90;;;;;;2101982;28;20020;-61
2021/07/13 01:27:48;;;;;;;25.00;4.57;;;16.40;99.90;;;;;;2079861;28;20022;-62
2021/07/13 01:28:56;;;;;;;20.98;4.75;;;16.40;99.90;;;;;;2079896;28;20029;-62
2021/07/13 01:29:59;;;;;;;19.35;4.53;;;16.40;99.90;;;;;;2105019;28;20221;-64
2021/07/13 01:31:04;;;;;;;15.60;4.10;;;16.50;99.90;;;;;;2105676;28;20024;-68
2021/07/13 01:32:07;;;;;;;25.38;4.72;;;16.50;99.90;;;;;;2108908;28;20024;-63
2021/07/13 01:33:13;;;;;;;23.05;4.60;;;16.50;99.90;;;;;;2105574;28;20058;-61
2021/07/13 01:34:36;;;;;;;29.65;4.45;;;16.50;99.90;;;;;;2105176;28;20023;-62
2021/07/13 01:35:47;;;;;;;23.88;4.47;;;16.40;99.90;;;;;;2099520;28;20035;-62
2021/07/13 01:36:53;;;;;;;20.50;4.20;;;16.40;99.90;;;;;;2096654;28;20036;-62
2021/07/13 01:37:57;;;;;;;18.90;4.25;;;16.50;99.90;;;;;;2096686;28;20028;-62
2021/07/13 01:39:00;;;;;;;14.10;3.50;;;16.50;99.90;;;;;;2097316;28;20028;-62
2021/07/13 01:40:02;;;;;;;15.40;4.00;;;16.50;99.90;;;;;;2100940;28;20054;-62
2021/07/13 01:41:07;;;;;;;12.85;3.40;;;16.50;99.90;;;;;;2098275;28;20024;-62
2021/07/13 01:42:10;;;;;;;25.23;5.47;;;16.50;99.90;;;;;;2096987;28;20024;-62
2021/07/13 01:43:12;;;;;;;12.98;3.70;;;16.50;99.90;;;;;;2097506;28;20104;-62
2021/07/13 01:44:14;;;;;;;16.08;4.05;;;16.50;99.90;;;;;;2097216;28;20479;-62
2021/07/13 01:45:15;;;;;;;;;;;16.50;99.90;;;;;;2097774;28;20040;-62
2021/07/13 01:46:17;;;;;;;17.40;4.60;;;16.50;99.90;;;;;;2099183;28;19919;-62
2021/07/13 01:47:19;;;;;;;23.23;4.88;;;16.50;99.90;;;;;;2105454;28;20545;-62
2021/07/13 01:48:21;;;;;;;16.25;4.82;;;16.50;99.90;;;;;;2105426;28;20027;-64
2021/07/13 01:49:24;;;;;;;19.60;4.15;;;16.50;99.90;;;;;;2105697;28;20089;-62
2021/07/13 01:50:26;;;;;;;15.93;4.25;;;16.50;99.90;;;;;;2105971;28;20020;-62
2021/07/13 01:51:27;;;;;;;11.13;3.83;;;16.50;99.90;;;;;;2102359;28;20112;-62
2021/07/13 01:52:30;;;;;;;20.67;4.37;;;16.50;99.90;;;;;;2105429;28;20020;-62
2021/07/13 01:53:32;;;;;;;17.50;4.05;;;16.50;99.90;;;;;;2101565;28;20798;-62
2021/07/13 01:54:34;;;;;;;21.73;4.22;;;16.50;99.90;;;;;;2097308;28;20039;-62
2021/07/13 01:55:37;;;;;;;18.48;4.47;;;16.50;99.90;;;;;;2097390;28;20119;-62
2021/07/13 01:56:38;;;;;;;22.08;4.78;;;16.50;99.90;;;;;;2097319;28;20491;-62
2021/07/13 01:57:40;;;;;;;16.85;4.22;;;16.50;99.90;;;;;;2097214;28;20527;-62
2021/07/13 01:58:42;;;;;;;22.58;4.43;;;16.50;99.90;;;;;;2095540;28;20085;-62
2021/07/13 01:59:46;;;;;;;22.77;5.00;;;16.50;99.90;;;;;;2096940;28;20016;-62
2021/07/13 02:00:47;;;;;;;16.10;5.10;;;16.50;99.90;;;;;;2096710;28;20050;-62
2021/07/13 02:01:48;;;;;;;18.27;4.35;;;16.50;99.90;;;;;;2096973;28;20047;-61
2021/07/13 02:02:50;;;;;;;16.67;4.93;;;16.50;99.90;;;;;;2097291;28;20373;-62
2021/07/13 02:03:53;;;;;;;12.95;4.57;;;16.50;99.90;;;;;;2102262;28;20036;-63
2021/07/13 02:04:56;;;;;;;14.68;4.63;;;16.50;99.90;;;;;;2104381;28;20061;-62
2021/07/13 02:05:57;;;;;;;19.60;4.80;;;16.50;99.90;;;;;;2104640;28;20452;-62
2021/07/13 02:07:00;;;;;;;14.52;5.32;;;16.50;99.90;;;;;;2105675;28;20291;-62
2021/07/13 02:08:04;;;;;;;15.23;5.40;;;16.50;99.90;;;;;;2104879;28;20061;-62
2021/07/13 02:09:09;;;;;;;20.52;4.88;;;16.50;99.90;;;;;;2096620;28;20476;-62
2021/07/13 02:10:10;;;;;;;18.05;4.90;;;16.50;99.90;;;;;;2104898;28;20020;-62
2021/07/13 02:11:12;;;;;;;16.15;4.65;;;16.60;99.90;;;;;;2105412;28;20020;-62
2021/07/13 02:12:13;;;;;;;18.15;5.47;;;16.60;99.90;;;;;;2098654;28;20028;-62
2021/07/13 02:13:18;;;;;;;17.55;4.50;;;16.60;99.90;;;;;;2096153;28;20020;-62
2021/07/13 02:14:19;;;;;;;19.23;4.80;;;16.60;99.90;;;;;;2096123;28;20051;-61
2021/07/13 02:15:20;;;;;;;21.25;5.45;;;16.60;99.90;;;;;;2095987;28;20024;-61
2021/07/13 02:16:21;;;;;;;17.98;4.82;;;16.60;99.90;;;;;;2094063;28;20024;-61
2021/07/13 02:17:29;;;;;;;20.08;4.97;;;16.60;99.90;;;;;;2109481;28;20566;-62
2021/07/13 02:18:30;;;;;;;15.00;4.75;;;16.60;99.90;;;;;;2096891;28;20381;-61
2021/07/13 02:19:31;;;;;;;21.23;5.28;;;16.60;99.90;;;;;;2097145;28;20031;-62
2021/07/13 02:20:32;;;;;;;14.63;4.57;;;16.60;99.90;;;;;;2099964;28;20277;-63
2021/07/13 02:21:33;;;;;;;17.98;5.38;;;16.60;99.90;;;;;;2107019;28;20077;-62
2021/07/13 02:22:34;;;;;;;17.08;5.22;;;16.60;99.90;;;;;;2105106;28;20507;-62
2021/07/13 02:23:36;;;;;;;24.35;5.22;;;16.60;99.90;;;;;;2105188;28;20034;-63
2021/07/13 02:24:36;;;;;;;21.65;5.32;;;16.50;99.90;;;;;;2102741;28;20031;-62
2021/07/13 02:25:39;;;;;;;17.08;5.35;;;16.60;99.90;;;;;;2097235;28;20021;-62
2021/07/13 02:26:46;;;;;;;15.25;5.00;;;16.60;99.90;;;;;;2104667;28;20054;-61
2021/07/13 02:28:05;;;;;;;19.00;5.45;;;16.60;99.90;;;;;;2104355;28;20043;-62
2021/07/13 02:29:17;;;;;;;14.02;4.65;;;16.60;99.90;;;;;;2097951;28;20028;-62
2021/07/13 02:30:18;;;;;;;11.82;5.07;;;16.60;99.90;;;;;;2096408;28;20031;-61
2021/07/13 02:31:31;;;;;;;15.77;5.55;;;16.60;99.90;;;;;;2098407;28;20123;-62
2021/07/13 02:32:38;;;;;;;18.58;5.28;;;16.60;99.90;;;;;;2097169;28;20111;-63
2021/07/13 02:34:07;;;;;;;21.33;5.32;;;16.60;99.90;;;;;;2096947;28;20033;-62
2021/07/13 02:35:10;;;;;;;15.63;5.13;;;16.50;99.90;;;;;;2092877;28;20058;-62
2021/07/13 02:36:15;;;;;;;15.27;5.38;;;16.60;99.90;;;;;;2094729;28;20050;-62
2021/07/13 02:37:17;;;;;;;15.18;5.32;;;16.60;99.90;;;;;;2096610;28;20027;-62
2021/07/13 02:38:20;;;;;;;14.30;5.55;;;16.60;99.90;;;;;;2104510;28;20332;-62
2021/07/13 02:39:21;;;;;;;19.67;5.80;;;16.60;99.90;;;;;;2104769;28;20024;-62
2021/07/13 02:40:22;;;;;;;23.05;5.13;;;16.60;99.90;;;;;;2105274;28;20020;-62
2021/07/13 02:41:24;;;;;;;16.27;4.97;;;16.60;99.90;;;;;;2104549;28;20059;-62
2021/07/13 02:42:28;;;;;;;16.50;6.35;;;16.50;99.90;;;;;;2104750;28;20023;-62
2021/07/13 02:43:29;;;;;;;21.73;5.80;;;16.50;99.90;;;;;;2100520;28;20499;-62
2021/07/13 02:44:34;;;;;;;15.05;5.80;;;16.50;99.90;;;;;;2098485;28;20103;-62
2021/07/13 02:45:35;;;;;;;16.70;5.20;;;16.50;99.90;;;;;;2104887;28;20514;-62
2021/07/13 02:46:43;;;;;;;15.52;5.20;;;16.50;99.90;;;;;;2104598;28;20316;-62
2021/07/13 02:47:45;;;;;;;19.02;5.45;;;16.50;99.90;;;;;;2104708;28;20028;-62
2021/07/13 02:48:47;;;;;;;18.08;5.53;;;16.50;99.90;;;;;;2103000;28;20460;-62
2021/07/13 02:49:51;;;;;;;15.75;5.57;;;16.50;99.90;;;;;;2099806;28;20017;-62
2021/07/13 02:50:54;;;;;;;25.88;5.85;;;16.50;99.90;;;;;;2104949;28;20020;-62
2021/07/13 02:51:55;;;;;;;20.10;5.65;;;16.60;99.90;;;;;;2104479;28;20484;-62
2021/07/13 02:52:57;;;;;;;14.80;5.45;;;16.60;99.90;;;;;;2104498;28;20530;-62
2021/07/13 02:53:59;;;;;;;15.60;6.43;;;16.50;99.90;;;;;;2104949;28;20032;-62
2021/07/13 02:55:07;;;;;;;17.50;6.00;;;16.50;99.90;;;;;;2104245;28;20110;-62
2021/07/13 02:56:09;;;;;;;19.15;6.78;;;16.50;99.90;;;;;;2101493;28;20036;-62
2021/07/13 02:57:11;;;;;;;18.70;5.80;;;16.50;99.90;;;;;;2100062;28;20029;-62
2021/07/13 02:58:13;;;;;;;14.88;5.90;;;16.50;99.90;;;;;;2099766;28;20012;-62
2021/07/13 02:59:17;;;;;;;19.92;6.63;;;16.60;99.90;;;;;;2104237;28;20030;-62
2021/07/13 03:00:19;;;;;;;28.08;6.47;;;16.60;99.90;;;;;;2093673;28;20275;-62
2021/07/13 03:01:20;;;;;;;17.40;5.93;;;16.60;99.90;;;;;;2101230;28;20099;-62
2021/07/13 03:02:22;;;;;;;16.67;6.90;;;16.50;99.90;;;;;;2096265;28;20035;-62
2021/07/13 03:03:23;;;;;;;24.83;6.40;;;16.60;99.90;;;;;;2096536;28;20115;-62
2021/07/13 03:04:25;;;;;;;19.50;6.35;;;16.50;99.90;;;;;;2101627;28;20090;-62
2021/07/13 03:05:26;;;;;;;17.17;6.65;;;16.50;99.90;;;;;;2102260;28;20020;-63
2021/07/13 03:06:27;;;;;;;22.00;6.40;;;16.50;99.90;;;;;;2096708;28;20021;-63
2021/07/13 03:07:29;;;;;;;19.40;5.97;;;16.50;99.90;;;;;;2096559;28;20372;-63
2021/07/13 03:08:30;;;;;;;23.30;7.03;;;16.50;99.90;;;;;;2097399;28;20024;-65
2021/07/13 03:09:31;;;;;;;28.77;7.45;;;16.50;99.90;;;;;;2098516;28;20484;-63
2021/07/13 03:10:33;;;;;;;15.68;6.47;;;16.50;99.90;;;;;;2096799;28;20029;-63
2021/07/13 03:11:34;;;;;;;21.05;6.75;;;16.50;99.90;;;;;;2104439;28;20421;-62
2021/07/13 03:12:36;;;;;;;22.10;7.63;;;16.50;99.90;;;;;;2102365;28;20028;-63
2021/07/13 03:13:37;;;;;;;18.35;7.15;;;16.50;99.90;;;;;;2100495;28;20404;-62
2021/07/13 03:14:39;;;;;;;19.92;6.55;;;16.50;99.90;;;;;;2096800;28;20034;-63
2021/07/13 03:15:41;;;;;;;20.85;6.93;;;16.50;99.90;;;;;;2096686;28;20028;-63
2021/07/13 03:16:44;;;;;;;24.50;6.90;;;16.40;99.90;;;;;;2096648;28;20405;-63
2021/07/13 03:17:45;;;;;;;;;;;16.40;99.90;;;;;;2097076;28;20031;-63
2021/07/13 03:18:46;;;;;;;20.30;7.30;;;16.40;99.90;;;;;;2096690;28;19908;-63
2021/07/13 03:19:47;;;;;;;24.95;6.60;;;16.40;99.90;;;;;;2096728;28;20087;-63
2021/07/13 03:20:52;;;;;;;22.08;7.35;;;16.40;99.90;;;;;;2096567;28;20337;-64
2021/07/13 03:21:56;;;;;;;22.05;7.30;;;16.40;99.90;;;;;;2098569;28;20073;-63
2021/07/13 03:22:57;;;;;;;23.95;6.85;;;16.30;99.90;;;;;;2099512;28;20495;-67
2021/07/13 03:24:00;;;;;;;18.75;6.57;;;16.30;99.90;;;;;;2096412;28;20020;-63
2021/07/13 03:25:03;;;;;;;21.65;7.38;;;16.30;99.90;;;;;;2096603;28;20104;-64
2021/07/13 03:26:05;;;;;;;18.95;7.07;;;16.30;99.90;;;;;;2100384;28;20012;-63
2021/07/13 03:27:08;;;;;;;21.60;7.47;;;16.30;99.90;;;;;;2104773;28;20089;-64
2021/07/13 03:28:10;;;;;;;21.30;7.30;;;16.30;99.90;;;;;;2104205;28;20020;-64
2021/07/13 03:29:12;;;;;;;20.38;6.85;;;16.30;99.90;;;;;;2104179;28;20028;-64
2021/07/13 03:30:14;;;;;;;21.58;7.35;;;16.30;99.90;;;;;;2104837;28;20095;-64
2021/07/13 03:31:15;;;;;;;23.40;7.55;;;16.30;99.90;;;;;;2101042;28;20514;-66
2021/07/13 03:32:17;;;;;;;33.10;8.05;;;16.30;99.90;;;;;;2104070;28;20028;-64
2021/07/13 03:33:19;;;;;;;19.70;7.55;;;16.30;99.90;;;;;;2096118;28;20060;-65
2021/07/13 03:34:21;;;;;;;23.33;7.15;;;16.30;99.90;;;;;;2096519;28;20494;-64
2021/07/13 03:35:23;;;;;;;17.08;6.95;;;16.30;99.90;;;;;;2096002;28;20029;-64
2021/07/13 03:36:24;;;;;;;24.00;6.90;;;16.30;99.90;;;;;;2102339;28;20020;-65
2021/07/13 03:37:25;;;;;;;17.20;6.57;;;16.30;99.90;;;;;;2095802;28;20086;-65
2021/07/13 03:38:26;;;;;;;20.80;7.07;;;16.30;99.90;;;;;;2096217;28;20016;-65
2021/07/13 03:39:28;;;;;;;30.25;8.18;;;16.30;99.90;;;;;;2096716;28;20056;-65
2021/07/13 03:40:29;;;;;;;20.77;7.13;;;16.30;99.90;;;;;;2096779;28;20100;-64
2021/07/13 03:41:31;;;;;;;19.00;7.40;;;16.30;99.90;;;;;;2096071;28;20039;-64
2021/07/13 03:42:32;;;;;;;30.23;7.30;;;16.30;99.90;;;;;;2096243;28;20031;-65
2021/07/13 03:43:33;;;;;;;24.65;6.82;;;16.30;99.90;;;;;;2095952;28;20119;-64
2021/07/13 03:44:34;;;;;;;22.30;6.57;;;16.30;99.90;;;;;;2095878;28;20074;-65
2021/07/13 03:45:35;;;;;;;22.77;6.78;;;16.30;99.90;;;;;;2093976;28;20075;-65
2021/07/13 03:46:37;;;;;;;16.92;6.45;;;16.30;99.90;;;;;;2100285;28;20028;-65
2021/07/13 03:47:38;;;;;;;19.25;7.43;;;16.30;99.90;;;;;;2100060;28;20078;-65
2021/07/13 03:48:39;;;;;;;25.15;6.88;;;16.30;99.90;;;;;;2096762;28;20532;-65
2021/07/13 03:49:42;;;;;;;17.00;6.30;;;16.30;99.90;;;;;;2098340;28;20025;-65
2021/07/13 03:50:43;;;;;;;26.70;7.47;;;16.30;99.90;;;;;;2098356;28;20745;-65
2021/07/13 03:51:46;;;;;;;22.90;6.57;;;16.30;99.90;;;;;;2098303;28;20499;-64
2021/07/13 03:52:47;;;;;;;13.55;6.15;;;16.30;99.90;;;;;;2098226;28;20027;-64
2021/07/13 03:53:48;;;;;;;18.55;6.18;;;16.30;99.90;;;;;;2097501;28;20047;-64
2021/07/13 03:54:48;;;;;;;19.27;6.00;;;16.20;99.90;;;;;;2095495;28;20496;-63
2021/07/13 03:55:49;;;;;;;21.13;6.72;;;16.30;99.90;;;;;;2098133;28;20039;-63
2021/07/13 03:56:50;;;;;;;19.42;6.07;;;16.30;99.90;;;;;;2098065;28;20024;-64
2021/07/13 03:57:54;;;;;;;23.10;6.82;;;16.30;99.90;;;;;;2100229;28;20097;-67
2021/07/13 03:58:55;;;;;;;17.90;6.35;;;16.30;99.90;;;;;;2098051;28;20016;-64
2021/07/13 03:59:56;;;;;;;14.20;6.22;;;16.30;99.90;;;;;;2098370;28;20028;-63
2021/07/13 04:00:56;;;;;;;17.30;6.47;;;16.30;99.90;;;;;;2098176;28;20025;-64
2021/07/13 04:01:57;;;;;;;19.55;6.15;;;16.20;99.90;;;;;;2095685;28;20507;-64
2021/07/13 04:02:58;;;;;;;14.55;5.97;;;16.30;99.90;;;;;;2102253;28;20024;-64
2021/07/13 04:04:00;;;;;;;14.05;5.80;;;16.20;99.90;;;;;;2105564;28;20038;-64
2021/07/13 04:05:01;;;;;;;16.20;6.20;;;16.20;99.90;;;;;;2105891;28;20403;-64
2021/07/13 04:06:01;;;;;;;16.33;5.63;;;16.20;99.90;;;;;;2102906;28;20166;-63
2021/07/13 04:07:04;;;;;;;14.68;5.53;;;16.20;99.90;;;;;;2101699;28;20048;-64
2021/07/13 04:08:04;;;;;;;;;;;16.20;99.90;;;;;;2097762;28;20028;-64
2021/07/13 04:09:07;;;;;;;20.40;5.82;;;16.20;99.90;;;;;;2097340;28;20310;-64
2021/07/13 04:10:11;;;;;;;17.15;5.20;;;16.20;99.90;;;;;;2098127;28;20016;-63
2021/07/13 04:11:11;;;;;;;14.68;5.18;;;16.20;99.90;;;;;;2105585;28;20024;-63
2021/07/13 04:12:12;;;;;;;11.77;4.78;;;16.20;99.90;;;;;;2105757;28;20368;-63
2021/07/13 04:13:13;;;;;;;14.23;4.55;;;16.20;99.90;;;;;;2095396;28;20047;-63
2021/07/13 04:14:14;;;;;;;13.45;5.25;;;16.20;99.90;;;;;;2105411;28;20082;-63
2021/07/13 04:15:14;;;;;;;20.90;4.93;;;16.20;99.90;;;;;;2106089;28;20031;-62
2021/07/13 04:16:15;;;;;;;17.17;5.57;;;16.20;99.90;;;;;;2106394;28;20028;-63
2021/07/13 04:17:16;;;;;;;12.65;5.95;;;16.10;99.90;;;;;;2106350;28;20053;-63
2021/07/13 04:18:16;;;;;;;14.10;4.80;;;16.10;99.90;;;;;;2105385;28;20075;-63
2021/07/13 04:19:17;;;;;;;13.45;5.10;;;16.20;99.90;;;;;;2105430;28;20020;-63
2021/07/13 04:20:18;;;;;;;13.75;5.20;;;16.20;99.90;;;;;;2106126;28;20182;-63
2021/07/13 04:21:19;;;;;;;15.68;5.18;;;16.20;99.90;;;;;;2102528;28;20059;-63
2021/07/13 04:22:19;;;;;;;15.70;5.45;;;16.20;99.90;;;;;;2092792;28;20136;-63
2021/07/13 04:23:20;;;;;;;16.73;5.15;;;16.10;99.90;;;;;;2100588;28;20093;-63
2021/07/13 04:24:21;;;;;;;14.00;5.20;;;16.10;99.90;;;;;;2097978;28;20028;-63
2021/07/13 04:25:22;;;;;;;13.95;4.43;;;16.10;99.90;;;;;;2097905;28;20078;-63
2021/07/13 04:26:24;;;;;;;11.85;5.20;;;16.10;99.90;;;;;;2104390;28;20484;-63
2021/07/13 04:27:25;;;;;;;20.98;5.32;;;16.10;99.90;;;;;;2102384;28;20637;-63
2021/07/13 04:28:31;;;;;;;13.60;4.70;;;16.10;99.90;;;;;;2100753;28;20024;-63
2021/07/13 04:29:31;;;;;;;14.65;4.97;;;16.10;99.90;;;;;;2100030;28;20575;-63
2021/07/13 04:30:32;;;;;;;13.15;4.95;;;16.10;99.90;;;;;;2106210;28;20024;-63
2021/07/13 04:31:33;;;;;;;18.50;4.90;;;16.10;99.90;;;;;;2106384;28;20039;-63
2021/07/13 04:32:34;;;;;;;15.57;5.00;;;16.10;99.90;;;;;;2102330;28;20103;-62
2021/07/13 04:33:35;;;;;;;18.17;4.90;;;16.10;99.90;;;;;;2098397;28;20031;-63
2021/07/13 04:34:35;;;;;;;13.00;5.38;;;16.10;99.90;;;;;;2106047;28;20126;-63
2021/07/13 04:35:36;;;;;;;19.38;4.57;;;16.10;99.90;;;;;;2105516;28;20541;-63
2021/07/13 04:36:38;;;;;;;19.52;4.85;;;16.10;99.90;;;;;;2105802;28;20020;-62
2021/07/13 04:37:38;;;;;;;13.88;4.85;;;16.20;99.90;;;;;;2106358;28;20491;-63
2021/07/13 04:38:41;;;;;;;21.75;4.97;;;16.10;99.90;;;;;;2105499;28;20073;-63
2021/07/13 04:39:42;;;;;;;20.50;4.88;;;16.10;99.90;;;;;;2102562;28;20372;-63
2021/07/13 04:40:42;;;;;;;13.13;5.10;;;16.10;99.90;;;;;;2097708;28;20051;-63
2021/07/13 04:41:43;;;;;;;16.48;4.85;;;16.10;99.90;;;;;;2097660;28;20024;-62
2021/07/13 04:42:44;;;;;;;16.83;5.40;;;16.10;99.90;;;;;;2105625;28;20016;-63
2021/07/13 04:43:44;;;;;;;14.52;4.78;;;16.10;99.90;;;;;;2105378;28;20031;-62
2021/07/13 04:44:45;;;;;;;22.60;5.03;;;16.10;99.90;;;;;;2096956;28;20059;-62
2021/07/13 04:45:46;;;;;;;20.85;5.60;;;16.20;99.90;;;;;;2097094;28;20115;-65
2021/07/13 04:46:47;;;;;;;18.95;4.97;;;16.20;99.90;;;;;;2097516;28;20055;-63
2021/07/13 04:47:47;;;;;;;20.98;5.10;;;16.20;99.90;;;;;;2097855;28;20285;-63
2021/07/13 04:48:48;;;;;;;21.80;5.60;;;16.20;99.90;;;;;;2095763;28;20100;-63
2021/07/13 04:49:49;;;;;;;19.20;4.95;;;16.20;99.90;;;;;;2097720;28;20103;-63
2021/07/13 04:50:50;;;;;;;20.67;5.05;;;16.20;99.90;;;;;;2097039;28;20047;-63
2021/07/13 04:51:50;;;;;;;17.85;5.10;;;16.20;99.90;;;;;;2097077;28;20029;-62
2021/07/13 04:52:51;;;;;;;19.00;5.03;;;16.20;99.90;;;;;;2097478;28;20029;-62
2021/07/13 04:53:52;;;;;;;20.83;5.20;;;16.20;99.90;;;;;;2096672;28;20348;-62
2021/07/13 04:54:53;;;;;;;18.08;4.50;;;16.20;99.90;;;;;;2100331;28;20573;-62
2021/07/13 04:55:53;;;;;;;17.45;4.95;;;16.20;99.90;;;;;;2105107;28;20058;-62
2021/07/13 04:56:54;;;;;;;16.05;4.90;;;16.20;99.90;;;;;;2105171;28;20028;-62
2021/07/13 04:57:54;;;;;;;16.85;5.20;;;16.20;99.90;;;;;;2104124;28;20169;-62
2021/07/13 04:58:56;;;;;;;16.50;4.97;;;16.20;99.90;;;;;;2101488;28;20024;-62
2021/07/13 04:59:56;;;;;;;20.90;4.90;;;16.20;99.90;;;;;;2101516;28;20024;-62
2021/07/13 05:00:57;;;;;;;21.00;5.38;;;16.20;99.90;;;;;;2105211;28;20028;-62
2021/07/13 05:01:57;;;;;;;21.00;4.80;;;16.20;99.90;;;;;;2102533;28;20317;-62
2021/07/13 05:02:58;;;;;;;19.95;4.72;;;16.20;99.90;;;;;;2104255;28;20487;-62
2021/07/13 05:03:59;;;;;;;21.98;4.70;;;16.20;99.90;;;;;;2097312;28;20430;-62
2021/07/13 05:04:59;;;;;;;20.40;4.15;;;16.20;99.90;;;;;;2104885;28;20113;-62
2021/07/13 05:06:00;;;;;;;15.38;4.22;;;16.20;99.90;;;;;;2105258;28;20024;-62
2021/07/13 05:07:01;;;;;;;16.67;4.45;;;16.20;99.90;;;;;;2096934;28;20545;-62
2021/07/13 05:08:02;;;;;;;22.75;5.03;;;16.30;99.90;;;;;;2096971;28;20095;-62
2021/07/13 05:09:04;;;;;;;15.88;4.57;;;16.30;99.90;;;;;;2097323;28;20020;-63
2021/07/13 05:10:05;;;;;;;15.52;5.10;;;16.20;99.90;;;;;;2101275;28;20044;-62
2021/07/13 05:11:06;;;;;;;22.00;4.47;;;16.30;99.90;;;;;;2105841;28;20115;-62
2021/07/13 05:12:07;;;;;;;19.67;4.88;;;16.30;99.90;;;;;;2105064;28;20045;-62
2021/07/13 05:13:09;;;;;;;17.55;4.72;;;16.30;99.90;;;;;;2105476;28;20438;-61
2021/07/13 05:14:10;;;;;;;19.38;5.15;;;16.20;99.90;;;;;;2096813;28;20097;-62
2021/07/13 05:15:13;;;;;;;13.45;4.38;;;16.30;99.90;;;;;;2096929;28;20036;-62
2021/07/13 05:16:14;;;;;;;23.15;5.07;;;16.30;99.90;;;;;;2097344;28;20032;-63
2021/07/13 05:17:15;;;;;;;23.80;6.03;;;16.30;99.90;;;;;;2095828;28;20027;-63
2021/07/13 05:18:16;;;;;;;25.80;5.15;;;16.30;99.90;;;;;;2098888;28;20499;-63
2021/07/13 05:19:17;;;;;;;16.40;4.97;;;16.30;99.90;;;;;;2105770;28;20016;-63
2021/07/13 05:20:18;;;;;;;18.13;4.72;;;16.30;99.90;;;;;;2104921;28;20089;-63
2021/07/13 05:21:18;;;;;;;12.90;4.45;;;16.30;99.90;;;;;;2105265;28;20530;-64
2021/07/13 05:22:20;;;;;;;22.98;5.47;;;16.30;99.90;;;;;;2105890;28;20025;-63
2021/07/13 05:23:20;;;;;;;22.77;5.55;;;16.30;99.90;;;;;;2105555;28;20012;-63